N5120W KDCA-KDCA
Flight info
| Callsign | N5120W |
|---|---|
| Flight time | 0h 11m |
| Altitude | VFR/025 |
| Route | FF SOUTHBOUND |
| Aircraft | B06/L-VGD/C |
Departure
| Time | 2026-04-23 00:32 |
|---|---|
| Airport | Ronald Reagan Washington National Airport (KDCA) |
Arrival
| Time | 2026-04-23 00:44 |
|---|---|
| Airport | Ronald Reagan Washington National Airport (KDCA) |
| Time | Latitude | Longitude | Altitude | Speed | Heading |
|---|---|---|---|---|---|
| 2026-04-23 00:30 | 38.84760 | -77.04391 | 25 ft | 0 kts | 227° |
| 2026-04-23 00:31 | 38.84757 | -77.04419 | 91 ft | 7 kts | 234° |
| 2026-04-23 00:31 | 38.84737 | -77.04485 | 197 ft | 19 kts | 213° |
| 2026-04-23 00:32 | 38.84503 | -77.04463 | 301 ft | 58 kts | 154° |
| 2026-04-23 00:32 | 38.84077 | -77.04279 | 427 ft | 71 kts | 226° |
| 2026-04-23 00:32 | 38.84047 | -77.04961 | 514 ft | 91 kts | 263° |
| 2026-04-23 00:32 | 38.83654 | -77.05324 | 972 ft | 71 kts | 184° |
| 2026-04-23 00:33 | 38.83202 | -77.05270 | 1268 ft | 82 kts | 172° |
| 2026-04-23 00:33 | 38.82619 | -77.05234 | 1360 ft | 82 kts | 185° |
| 2026-04-23 00:33 | 38.82037 | -77.05293 | 1413 ft | 92 kts | 182° |
| 2026-04-23 00:33 | 38.81388 | -77.05312 | 1395 ft | 96 kts | 182° |
| 2026-04-23 00:34 | 38.80727 | -77.05384 | 1441 ft | 92 kts | 192° |
| 2026-04-23 00:34 | 38.80106 | -77.05496 | 1476 ft | 93 kts | 187° |
| 2026-04-23 00:34 | 38.79426 | -77.05553 | 1356 ft | 105 kts | 180° |
| 2026-04-23 00:34 | 38.78717 | -77.05492 | 1338 ft | 101 kts | 174° |
| 2026-04-23 00:35 | 38.78015 | -77.05399 | 1292 ft | 101 kts | 172° |
| 2026-04-23 00:35 | 38.77327 | -77.05283 | 1254 ft | 99 kts | 171° |
| 2026-04-23 00:35 | 38.76731 | -77.04883 | 1244 ft | 98 kts | 126° |
| 2026-04-23 00:35 | 38.76424 | -77.04170 | 1247 ft | 94 kts | 103° |
| 2026-04-23 00:36 | 38.76164 | -77.03439 | 1407 ft | 87 kts | 109° |
| 2026-04-23 00:36 | 38.75943 | -77.02660 | 1434 ft | 95 kts | 105° |
| 2026-04-23 00:36 | 38.75731 | -77.01874 | 1466 ft | 99 kts | 103° |
| 2026-04-23 00:36 | 38.75473 | -77.01056 | 1574 ft | 99 kts | 112° |
| 2026-04-23 00:37 | 38.75169 | -77.00226 | 1617 ft | 103 kts | 112° |
| 2026-04-23 00:37 | 38.74816 | -76.99439 | 1693 ft | 102 kts | 121° |
| 2026-04-23 00:37 | 38.74432 | -76.98637 | 1616 ft | 106 kts | 118° |
| 2026-04-23 00:37 | 38.74085 | -76.97850 | 1715 ft | 88 kts | 96° |
| 2026-04-23 00:38 | 38.74165 | -76.97202 | 2007 ft | 78 kts | 69° |
| 2026-04-23 00:38 | 38.74151 | -76.96395 | 1996 ft | 102 kts | 102° |
| 2026-04-23 00:38 | 38.73892 | -76.95480 | 1947 ft | 116 kts | 106° |
| 2026-04-23 00:38 | 38.73689 | -76.94508 | 1912 ft | 114 kts | 99° |
| 2026-04-23 00:39 | 38.73338 | -76.93713 | 2049 ft | 103 kts | 139° |
| 2026-04-23 00:39 | 38.72725 | -76.93278 | 1984 ft | 98 kts | 166° |
| 2026-04-23 00:39 | 38.72057 | -76.93124 | 1925 ft | 98 kts | 181° |
| 2026-04-23 00:39 | 38.71429 | -76.93298 | 1828 ft | 86 kts | 232° |
| 2026-04-23 00:40 | 38.71160 | -76.93972 | 1666 ft | 87 kts | 252° |
| 2026-04-23 00:40 | 38.70976 | -76.94717 | 1476 ft | 86 kts | 258° |
| 2026-04-23 00:40 | 38.70940 | -76.95436 | 1429 ft | 77 kts | 272° |
| 2026-04-23 00:40 | 38.70963 | -76.95989 | 1521 ft | 67 kts | 276° |
| 2026-04-23 00:41 | 38.71035 | -76.96667 | 1444 ft | 75 kts | 279° |
| 2026-04-23 00:41 | 38.71151 | -76.97322 | 1491 ft | 76 kts | 284° |
| 2026-04-23 00:41 | 38.71275 | -76.97979 | 1467 ft | 76 kts | 283° |
| 2026-04-23 00:41 | 38.71414 | -76.98528 | 1456 ft | 73 kts | 291° |
| 2026-04-23 00:42 | 38.71545 | -76.99123 | 1613 ft | 59 kts | 286° |
| 2026-04-23 00:42 | 38.71648 | -76.99609 | 1607 ft | 52 kts | 284° |
| 2026-04-23 00:42 | 38.71756 | -77.00106 | 1530 ft | 70 kts | 288° |
| 2026-04-23 00:42 | 38.71941 | -77.00734 | 1536 ft | 74 kts | 294° |
| 2026-04-23 00:43 | 38.72202 | -77.01267 | 1659 ft | 70 kts | 302° |
| 2026-04-23 00:43 | 38.72503 | -77.01774 | 1683 ft | 81 kts | 313° |
| 2026-04-23 00:43 | 38.73069 | -77.02117 | 1519 ft | 88 kts | 330° |
| 2026-04-23 00:43 | 38.73593 | -77.02364 | 1431 ft | 88 kts | 332° |
| 2026-04-23 00:44 | 38.74218 | -77.02528 | 1383 ft | 87 kts | 342° |
| 2026-04-23 00:44 | 38.74449 | -77.03024 | 1249 ft | 65 kts | 244° |
| 2026-04-23 00:44 | 38.74162 | -77.03391 | 1310 ft | 47 kts | 221° |
| 2026-04-23 00:44 | 38.73833 | -77.03571 | 1235 ft | 62 kts | 196° |
| 2026-04-23 00:45 | 38.73378 | -77.03644 | 1041 ft | 76 kts | 177° |
| 2026-04-23 00:45 | 38.72855 | -77.03494 | 761 ft | 80 kts | 156° |
| 2026-04-23 00:45 | 38.72499 | -77.03409 | 743 ft | 35 kts | 194° |
| 2026-04-23 00:45 | 38.72255 | -77.03481 | 705 ft | 38 kts | 211° |
| 2026-04-23 00:46 | 38.72014 | -77.03648 | 702 ft | 40 kts | 219° |
| 2026-04-23 00:46 | 38.71785 | -77.03839 | 683 ft | 43 kts | 222° |
| 2026-04-23 00:46 | 38.71450 | -77.03964 | 589 ft | 53 kts | 198° |
| 2026-04-23 00:46 | 38.71282 | -77.03821 | 611 ft | 15 kts | 60° |
| 2026-04-23 00:47 | 38.71434 | -77.03593 | 520 ft | 56 kts | 26° |
| 2026-04-23 00:47 | 38.71892 | -77.03418 | 763 ft | 80 kts | 4° |
| 2026-04-23 00:47 | 38.72444 | -77.03247 | 1067 ft | 82 kts | 6° |
| 2026-04-23 00:47 | 38.72979 | -77.02996 | 1261 ft | 85 kts | 8° |
| 2026-04-23 00:48 | 38.73558 | -77.02717 | 1262 ft | 92 kts | 7° |
| 2026-04-23 00:48 | 38.74180 | -77.02478 | 1245 ft | 94 kts | 2° |
| 2026-04-23 00:48 | 38.74830 | -77.02335 | 1183 ft | 92 kts | 356° |
| 2026-04-23 00:48 | 38.75466 | -77.02266 | 1155 ft | 88 kts | 351° |
| 2026-04-23 00:49 | 38.76063 | -77.02278 | 1195 ft | 81 kts | 340° |
| 2026-04-23 00:49 | 38.76486 | -77.02522 | 1187 ft | 56 kts | 306° |
| 2026-04-23 00:49 | 38.76505 | -77.02903 | 1186 ft | 37 kts | 276° |
| 2026-04-23 00:49 | 38.76682 | -77.03046 | 1018 ft | 43 kts | 14° |
| 2026-04-23 00:50 | 38.76738 | -77.02919 | 1071 ft | 18 kts | 152° |
| 2026-04-23 00:50 | 38.76595 | -77.03040 | 1188 ft | 22 kts | 318° |
| 2026-04-23 00:50 | 38.76720 | -77.03236 | 1156 ft | 35 kts | 355° |
| 2026-04-23 00:50 | 38.76846 | -77.03144 | 1226 ft | 25 kts | 129° |
| 2026-04-23 00:51 | 38.76836 | -77.02967 | 1125 ft | 23 kts | 167° |
| 2026-04-23 00:51 | 38.76669 | -77.02898 | 1200 ft | 32 kts | 172° |
| 2026-04-23 00:51 | 38.76452 | -77.02838 | 1222 ft | 37 kts | 190° |